createdAt,value
2022-11-10T00:05:09.988Z,1012.61
2022-11-10T00:11:33.018Z,1012.73
2022-11-10T00:17:53.033Z,1012.87
2022-11-10T00:24:16.003Z,1012.96
2022-11-10T00:30:35.985Z,1013.04
2022-11-10T00:36:59.010Z,1013.12
2022-11-10T00:43:22.500Z,1013.25
2022-11-10T00:49:41.985Z,1013.28
2022-11-10T00:56:01.999Z,1013.3
2022-11-10T01:02:25.029Z,1013.32
2022-11-10T01:08:45.061Z,1013.34
2022-11-10T01:15:08.003Z,1013.46
2022-11-10T01:21:27.982Z,1013.52
2022-11-10T01:27:50.991Z,1013.58
2022-11-10T01:34:11.026Z,1013.72
2022-11-10T01:40:34.048Z,1013.74
2022-11-10T01:46:53.990Z,1013.81
2022-11-10T01:53:17.050Z,1013.81
2022-11-10T01:59:36.989Z,1013.83
2022-11-10T02:06:00.011Z,1013.85
2022-11-10T02:12:20.007Z,1013.91
2022-11-10T02:18:42.983Z,1013.95
2022-11-10T02:25:02.990Z,1014.03
2022-11-10T02:31:26.011Z,1014.05
2022-11-10T02:37:45.993Z,1014.13
2022-11-10T02:44:09.007Z,1014.26
2022-11-10T02:50:29.036Z,1014.3
2022-11-10T02:56:51.994Z,1014.36
2022-11-10T03:03:12.008Z,1014.4
2022-11-10T03:09:35.030Z,1014.42
2022-11-10T03:15:55.009Z,1014.52
2022-11-10T03:22:17.987Z,1014.54
2022-11-10T03:28:38.016Z,1014.64
2022-11-10T03:35:00.995Z,1014.77
2022-11-10T03:41:21.232Z,1014.87
2022-11-10T03:47:44.026Z,1014.87
2022-11-10T03:54:04.001Z,1014.89
2022-11-10T04:00:26.994Z,1014.89
2022-11-10T04:06:47.227Z,1014.97
2022-11-10T04:13:09.989Z,1015.01
2022-11-10T04:19:30.004Z,1015.18
2022-11-10T04:41:42.003Z,1015.46
2022-11-10T04:48:04.970Z,1015.6
2022-11-10T04:54:25.019Z,1015.8
2022-11-10T05:00:48.057Z,1015.92
2022-11-10T05:07:08.058Z,1015.94
2022-11-10T05:13:31.002Z,1016.03
2022-11-10T05:19:51.040Z,1016.19
2022-11-10T05:26:13.989Z,1016.29
2022-11-10T05:32:34.025Z,1016.43
2022-11-10T05:38:57.018Z,1016.43
2022-11-10T05:45:16.999Z,1016.45
2022-11-10T05:51:39.988Z,1016.54
2022-11-10T05:58:00.056Z,1016.64
2022-11-10T06:04:22.989Z,1016.7
2022-11-10T06:10:42.983Z,1016.76
2022-11-10T06:17:06.005Z,1016.88
2022-11-10T06:23:26.052Z,1016.97
2022-11-10T06:29:49.017Z,1017.11
2022-11-10T06:36:09.030Z,1017.21
2022-11-10T06:42:32.003Z,1017.33
2022-11-10T06:48:51.999Z,1017.44
2022-11-10T06:55:15.078Z,1017.54
2022-11-10T07:01:35.043Z,1017.66
2022-11-10T07:07:57.988Z,1017.76
2022-11-10T07:14:18.021Z,1017.87
2022-11-10T07:20:40.998Z,1017.99
2022-11-10T07:27:01.006Z,1018.07
2022-11-10T07:33:24.451Z,1018.19
2022-11-10T07:39:44.015Z,1018.27
2022-11-10T07:46:07.069Z,1018.43
2022-11-10T07:52:27.221Z,1018.53
2022-11-10T07:58:50.333Z,1018.61
2022-11-10T08:05:10.039Z,1018.71
2022-11-10T08:11:33.010Z,1018.76
2022-11-10T08:17:52.986Z,1018.86
2022-11-10T08:24:16.001Z,1018.92
2022-11-10T08:30:36.124Z,1018.98
2022-11-10T08:36:59.007Z,1019.08
2022-11-10T08:43:19.026Z,1019.15
2022-11-10T08:49:42.054Z,1019.21
2022-11-10T08:56:01.980Z,1019.33
2022-11-10T09:02:25.044Z,1019.39
2022-11-10T09:08:45.004Z,1019.47
2022-11-10T09:15:07.989Z,1019.55
2022-11-10T09:21:27.992Z,1019.62
2022-11-10T09:27:51.005Z,1019.72
2022-11-10T09:50:57.515Z,1019.84
2022-11-10T09:57:16.966Z,1019.9
2022-11-10T10:03:39.998Z,1019.88
2022-11-10T10:10:00.007Z,1019.92
2022-11-10T10:16:22.986Z,1019.96
2022-11-10T10:22:42.986Z,1019.98
2022-11-10T10:29:06.003Z,1020
2022-11-10T10:35:25.992Z,1020.04
2022-11-10T10:41:48.975Z,1020.02
2022-11-10T10:48:09.003Z,1020.04
2022-11-10T10:54:32.013Z,1020.06
2022-11-10T11:00:51.980Z,1020.13
2022-11-10T11:07:15.058Z,1020.17
2022-11-10T11:13:34.979Z,1020.15
2022-11-10T11:19:59.985Z,1020.11
2022-11-10T11:26:18.011Z,1020.07
2022-11-10T11:32:40.985Z,1020.11
2022-11-10T11:39:00.999Z,1020.17
2022-11-10T11:45:24.007Z,1020.27
2022-11-10T11:51:43.969Z,1020.45
2022-11-10T11:58:06.988Z,1020.53
2022-11-10T12:04:27.016Z,1020.56
2022-11-10T12:10:49.998Z,1020.64
2022-11-10T12:17:09.970Z,1020.7
2022-11-10T12:23:33.033Z,1020.7
2022-11-10T12:29:52.993Z,1020.72
2022-11-10T12:36:15.996Z,1020.68
2022-11-10T12:42:36.005Z,1020.7
2022-11-10T12:48:58.984Z,1020.66
2022-11-10T12:55:18.989Z,1020.64
2022-11-10T13:01:42.057Z,1020.6
2022-11-10T13:08:01.982Z,1020.62
2022-11-10T13:14:24.987Z,1020.66
2022-11-10T13:20:45.015Z,1020.66
2022-11-10T13:27:07.986Z,1020.72
2022-11-10T13:33:27.980Z,1020.74
2022-11-10T13:39:51.022Z,1020.93
2022-11-10T13:46:10.997Z,1020.98
2022-11-10T13:52:33.978Z,1020.98
2022-11-10T13:58:54.011Z,1021
2022-11-10T14:05:17.012Z,1021.04
2022-11-10T14:11:37.038Z,1021
2022-11-10T14:18:00.017Z,1021.04
2022-11-10T14:24:20.111Z,1021.12
2022-11-10T14:30:44.129Z,1021.14
2022-11-10T14:37:04.223Z,1021.18
2022-11-10T14:43:26.979Z,1021.26
2022-11-10T14:49:47.004Z,1021.22
2022-11-10T14:56:10.101Z,1021.22
2022-11-10T15:02:30.017Z,1021.22
2022-11-10T15:25:54.155Z,1021.26
2022-11-10T15:32:16.983Z,1021.32
2022-11-10T15:38:37.034Z,1021.34
2022-11-10T15:45:00.112Z,1021.3
2022-11-10T15:51:24.613Z,1021.3
2022-11-10T15:57:42.983Z,1021.36
2022-11-10T16:04:03.114Z,1021.47
2022-11-10T16:10:25.995Z,1021.57
2022-11-10T16:16:45.974Z,1021.67
2022-11-10T16:23:09.127Z,1021.77
2022-11-10T16:29:28.990Z,1021.85
2022-11-10T16:35:51.992Z,1021.85
2022-11-10T16:42:12.141Z,1021.86
2022-11-10T16:48:34.986Z,1021.9
2022-11-10T16:54:55.000Z,1022.02
2022-11-10T17:01:18.152Z,1022.16
2022-11-10T17:07:38.016Z,1022.35
2022-11-10T17:14:01.002Z,1022.51
2022-11-10T17:20:21.125Z,1022.69
2022-11-10T17:26:43.996Z,1022.79
2022-11-10T17:33:05.582Z,1022.86
2022-11-10T17:39:27.275Z,1022.92
2022-11-10T17:45:46.991Z,1022.94
2022-11-10T17:52:09.973Z,1022.96
2022-11-10T17:58:30.112Z,1022.94
2022-11-10T18:04:52.976Z,1022.96
2022-11-10T18:11:13.007Z,1023.02
2022-11-10T18:17:36.128Z,1023.12
2022-11-10T18:23:55.992Z,1023.25
2022-11-10T18:30:19.025Z,1023.37
2022-11-10T18:36:39.084Z,1023.37
2022-11-10T18:43:07.078Z,1023.37
2022-11-10T18:49:22.014Z,1023.37
2022-11-10T18:55:45.749Z,1023.52
2022-11-10T19:02:05.050Z,1023.5
2022-11-10T19:08:27.973Z,1023.62
2022-11-10T19:14:48.117Z,1023.6
2022-11-10T19:21:10.984Z,1023.54
2022-11-10T19:27:31.015Z,1023.52
2022-11-10T19:33:54.114Z,1023.5
2022-11-10T19:40:13.989Z,1023.62
2022-11-10T19:46:37.022Z,1023.73
2022-11-10T19:52:57.101Z,1023.72
2022-11-10T19:59:20.015Z,1023.73
2022-11-10T20:05:40.006Z,1023.75
2022-11-10T20:12:03.133Z,1023.72
2022-11-10T20:35:45.113Z,1023.75
2022-11-10T20:42:05.003Z,1023.79
2022-11-10T20:48:28.020Z,1023.85
2022-11-10T20:54:48.105Z,1023.77
2022-11-10T21:01:11.056Z,1023.73
2022-11-10T21:07:30.981Z,1023.77
2022-11-10T21:13:54.111Z,1023.73
2022-11-10T21:20:13.995Z,1023.72
2022-11-10T21:26:36.998Z,1023.72
2022-11-10T21:32:57.111Z,1023.83
2022-11-10T21:39:19.984Z,1023.95
2022-11-10T21:45:39.976Z,1024.05
2022-11-10T21:52:03.116Z,1024.07
2022-11-10T21:58:22.975Z,1024.14
2022-11-10T22:04:46.045Z,1024.22
2022-11-10T22:11:06.111Z,1024.24
2022-11-10T22:17:29.010Z,1024.24
2022-11-10T22:23:48.972Z,1024.24
2022-11-10T22:30:12.108Z,1024.3
2022-11-10T22:36:31.994Z,1024.38
2022-11-10T22:42:55.016Z,1024.38
2022-11-10T22:49:15.178Z,1024.3
2022-11-10T22:55:38.020Z,1024.36
2022-11-10T23:19:52.098Z,1024.5
2022-11-10T23:26:11.957Z,1024.58
2022-11-10T23:32:34.973Z,1024.59
2022-11-10T23:38:55.077Z,1024.63
2022-11-10T23:45:18.020Z,1024.59
2022-11-10T23:51:37.993Z,1024.65
2022-11-10T23:58:01.121Z,1024.65
